Data for 03/18/2009

Time Sea-Level Adjusted Pressure Absolute Pressure Temperature Relative Humidity Dew Point   
(mb) (inHg) (mb) (inHg) (C) (F) (%) (C) (F)
00:05 1023 30.21 852 25.16 -0.6 30.9 77 -4.2 24.5
00:10 1023 30.21 852 25.16 -0.7 30.7 77 -4.2 24.4
00:15 1023 30.21 852 25.16 -0.8 30.6 79 -4 24.8
00:20 1023 30.21 852 25.16 -0.7 30.7 78 -4.2 24.5
00:25 1023 30.21 852 25.16 -0.5 31 78 -3.9 25.1
00:30 1023 30.21 852 25.16 -0.6 31 76 -4.3 24.3
00:35 1023 30.21 852 25.16 -0.4 31.3 74 -4.6 23.8
00:40 1023 30.21 852 25.16 -0.6 31 77 -4.1 24.7
00:45 1023 30.21 852 25.16 -1.3 29.6 80 -4.3 24.3
00:50 1023 30.21 852 25.16 -1.6 29.1 80 -4.6 23.8
00:55 1023 30.21 852 25.16 -1.4 29.5 79 -4.6 23.8
01:00 1023 30.21 853 25.19 -1.4 29.5 78 -4.8 23.4
01:05 1023 30.21 853 25.19 -1 30.1 75 -4.8 23.3
01:10 1023 30.21 853 25.19 -1.4 29.4 79 -4.7 23.6
01:15 1024 30.24 853 25.19 -1.9 28.7 80 -4.8 23.3
01:20 1024 30.24 853 25.19 -1.8 28.8 79 -5 23
01:25 1024 30.24 853 25.19 -1.8 28.7 79 -4.9 23.2
01:30 1024 30.24 853 25.19 -1.5 29.2 74 -5.6 22
01:35 1024 30.24 853 25.19 -1.2 29.8 74 -5.2 22.6
01:40 1024 30.24 853 25.19 -1.4 29.5 75 -5.2 22.6
01:45 1024 30.24 853 25.19 -1.1 30 73 -5.4 22.3
01:50 1023 30.21 853 25.19 -0.7 30.7 71 -5.5 22.2
01:55 1023 30.21 853 25.19 -0.7 30.8 72 -5.2 22.7
02:00 1023 30.21 853 25.19 -1.3 29.7 74 -5.3 22.5
02:05 1023 30.21 853 25.19 -1.4 29.5 75 -5.2 22.6
02:10 1023 30.21 853 25.19 -1.5 29.3 76 -5.2 22.6
02:15 1023 30.21 853 25.19 -1.4 29.5 76 -5 22.9
02:20 1023 30.21 853 25.19 -1.1 30 73 -5.3 22.5
02:25 1023 30.21 853 25.19 -0.8 30.6 73 -5 22.9
02:30 1023 30.21 853 25.19 -0.8 30.5 73 -5.1 22.8
02:35 1023 30.21 853 25.19 -1.3 29.7 75 -5.2 22.7
02:40 1024 30.24 853 25.19 -1.3 29.7 73 -5.6 22
02:45 1024 30.24 853 25.19 -1.3 29.7 73 -5.6 22
02:50 1024 30.24 853 25.19 -1.4 29.4 74 -5.5 22.1
02:55 1024 30.24 853 25.19 -1.5 29.2 73 -5.8 21.6
03:00 1024 30.24 853 25.19 -1.4 29.6 71 -6 21.2
03:05 1024 30.24 853 25.19 -1 30.3 68 -6.1 21
03:10 1024 30.24 853 25.19 -0.7 30.8 68 -5.8 21.6
03:15 1024 30.24 853 25.19 -1.3 29.7 70 -6 21.1
03:20 1024 30.24 853 25.19 -1.6 29.1 72 -6 21.2
03:25 1024 30.24 853 25.19 -1.9 28.7 74 -6 21.3
03:30 1024 30.24 853 25.19 -2.1 28.3 76 -5.8 21.6
03:35 1024 30.24 853 25.19 -2.3 27.8 78 -5.7 21.8
03:40 1024 30.24 853 25.19 -2.4 27.6 77 -5.9 21.4
03:45 1024 30.24 853 25.19 -2.4 27.6 76 -6.2 20.9
03:50 1024 30.24 853 25.19 -2.1 28.2 70 -6.9 19.6
03:55 1024 30.24 853 25.19 -1.6 29.1 69 -6.6 20.1
04:00 1024 30.24 853 25.19 -1.8 28.8 72 -6.2 20.8
04:05 1024 30.24 853 25.19 -2.2 28.1 74 -6.2 20.8
04:10 1024 30.24 853 25.19 -2.4 27.6 75 -6.3 20.7
04:15 1024 30.24 853 25.19 -2.6 27.4 73 -6.8 19.7
04:20 1024 30.24 853 25.19 -2.4 27.6 72 -6.8 19.8
04:25 1024 30.24 853 25.19 -2.4 27.7 73 -6.7 20
04:30 1024 30.24 854 25.22 -2.4 27.6 72 -6.9 19.6
04:35 1024 30.24 854 25.22 -2.2 28.1 69 -7 19.3
04:40 1024 30.24 854 25.22 -1.8 28.7 67 -7.2 19
04:45 1024 30.24 854 25.22 -1.7 28.9 65 -7.4 18.7
04:50 1024 30.24 853 25.19 -1.7 28.9 64 -7.6 18.4
04:55 1024 30.24 853 25.19 -1.8 28.7 65 -7.6 18.3
05:00 1024 30.24 853 25.19 -2.1 28.2 66 -7.6 18.4
05:05 1024 30.24 854 25.22 -2.3 27.9 65 -8.1 17.5
05:10 1024 30.24 854 25.22 -1.9 28.6 64 -7.8 17.9
05:15 1024 30.24 854 25.22 -2.2 28.1 65 -8 17.6
05:20 1024 30.24 854 25.22 -2.3 27.8 64 -8.2 17.3
05:25 1024 30.24 854 25.22 -2.2 28 65 -8 17.6
05:30 1024 30.24 854 25.22 -2 28.3 62 -8.3 17
05:35 1024 30.24 854 25.22 -2.2 28.1 63 -8.3 17
05:40 1025 30.27 854 25.22 -2.3 27.9 61 -8.8 16.1
05:45 1025 30.27 854 25.22 -2.3 27.9 62 -8.6 16.6
05:50 1025 30.27 854 25.22 -2.5 27.5 65 -8.2 17.3
05:55 1025 30.27 854 25.22 -3.2 26.2 69 -8.1 17.4
06:00 1025 30.27 854 25.22 -4 24.8 71 -8.5 16.7
06:05 1025 30.27 854 25.22 -3.8 25.2 73 -7.9 17.7
06:10 1025 30.27 854 25.22 -3.9 25 73 -8 17.5
06:15 1025 30.27 854 25.22 -3.7 25.3 73 -7.9 17.7
06:20 1025 30.27 854 25.22 -3.6 25.5 73 -7.9 17.8
06:25 1025 30.27 854 25.22 -3.7 25.4 73 -7.9 17.8
06:30 1025 30.27 854 25.22 -3.7 25.3 73 -7.9 17.8
06:35 1025 30.27 854 25.22 -3.9 25.1 74 -7.8 17.9
06:40 1025 30.27 854 25.22 -4.2 24.5 75 -7.9 17.8
06:45 1025 30.27 854 25.22 -4.2 24.5 74 -8.1 17.4
06:50 1025 30.27 854 25.22 -4 24.9 73 -8.1 17.4
06:55 1025 30.27 854 25.22 -3.9 25 74 -7.9 17.7
07:00 1025 30.27 854 25.22 -3.9 25 73 -8.1 17.5
07:05 1025 30.27 854 25.22 -3.8 25.2 73 -8 17.6
07:10 1025 30.27 854 25.22 -3.7 25.4 72 -8.1 17.4
07:15 1025 30.27 854 25.22 -3.4 25.8 71 -8 17.6
07:20 1025 30.27 854 25.22 -3.4 25.9 70 -8.1 17.4
07:25 1025 30.27 854 25.22 -3.4 25.9 69 -8.2 17.2
07:30 1025 30.27 854 25.22 -3.2 26.2 68 -8.3 17.1
07:35 1025 30.27 854 25.22 -3 26.7 68 -8 17.6
07:40 1025 30.27 854 25.22 -2.9 26.8 70 -7.6 18.3
07:45 1025 30.27 854 25.22 -3 26.6 70 -7.7 18.1
07:50 1025 30.27 854 25.22 -3.1 26.4 69 -8.1 17.4
07:55 1025 30.27 854 25.22 -2.9 26.7 69 -7.9 17.8
08:00 1025 30.27 854 25.22 -2.8 26.9 67 -8.2 17.3
08:05 1025 30.27 854 25.22 -2.8 26.9 67 -8.1 17.4
08:10 1025 30.27 854 25.22 -2.9 26.8 68 -8 17.6
08:15 1025 30.27 854 25.22 -2.8 26.9 68 -8 17.6
08:20 1025 30.27 854 25.22 -2.9 26.8 70 -7.7 18.2
08:25 1025 30.27 854 25.22 -3.3 26 71 -7.9 17.7
08:30 1025 30.27 854 25.22 -3.2 26.3 69 -8.1 17.5
08:35 1025 30.27 854 25.22 -2.9 26.7 69 -7.9 17.8
08:40 1025 30.27 854 25.22 -2.7 27.1 68 -7.9 17.9
08:45 1025 30.27 854 25.22 -2.7 27.2 68 -7.7 18.1
08:50 1025 30.27 854 25.22 -2.6 27.3 69 -7.6 18.4
08:55 1025 30.27 854 25.22 -2.5 27.5 69 -7.5 18.5
09:00 1025 30.27 854 25.22 -2.3 27.9 69 -7.3 18.9
09:05 1025 30.27 854 25.22 -2.2 28.1 68 -7.3 18.9
09:10 1025 30.27 854 25.22 -2.1 28.2 66 -7.5 18.5
09:15 1025 30.27 854 25.22 -2 28.4 66 -7.4 18.6
09:20 1025 30.27 854 25.22 -1.8 28.8 64 -7.7 18.1
09:25 1025 30.27 854 25.22 -1.5 29.4 62 -7.9 17.9
09:30 1025 30.27 854 25.22 -1.2 29.9 61 -7.7 18.2
09:35 1025 30.27 854 25.22 -1 30.3 61 -7.6 18.4
09:40 1025 30.27 854 25.22 -0.6 31 61 -7.1 19.2
09:45 1025 30.27 854 25.22 -0.2 31.7 60 -7.1 19.3
09:50 1025 30.27 854 25.22 -0.1 31.8 58 -7.4 18.8
09:55 1025 30.27 854 25.22 0.1 32.2 56 -7.5 18.4
10:00 1025 30.27 854 25.22 0.4 32.7 58 -7 19.3
10:05 1025 30.27 854 25.22 0.7 33.2 57 -7 19.5
10:10 1025 30.27 854 25.22 0.8 33.4 57 -6.8 19.8
10:15 1025 30.27 854 25.22 0.7 33.2 59 -6.5 20.3
10:20 1025 30.27 854 25.22 1 33.8 58 -6.4 20.5
10:25 1025 30.27 855 25.25 1.6 34.9 52 -7.1 19.1
10:30 1025 30.27 855 25.25 2 35.6 52 -6.9 19.6
10:35 1025 30.27 855 25.25 2.2 35.9 52 -6.8 19.8
10:40 1025 30.27 855 25.25 2.1 35.9 49 -7.4 18.6
10:45 1026 30.3 855 25.25 2.3 36.1 51 -6.9 19.6
10:50 1026 30.3 855 25.25 2.8 37.1 45 -7.9 17.8
10:55 1026 30.3 855 25.25 2.8 37.1 44 -8.2 17.3
11:00 1026 30.3 855 25.25 3.1 37.6 45 -7.6 18.3
11:05 1026 30.3 855 25.25 3.5 38.3 39 -9.2 15.4
11:10 1025 30.27 855 25.25 4.2 39.5 43 -7.5 18.6
11:15 1025 30.27 855 25.25 4.7 40.4 37 -9 15.8
11:20 1025 30.27 855 25.25 5 41.1 40 -7.6 18.3
11:25 1025 30.27 855 25.25 5.9 42.6 37 -7.8 18
11:30 1025 30.27 855 25.25 5.6 42.1 37 -8 17.6
11:35 1025 30.27 855 25.25 5.2 41.4 36 -8.6 16.5
11:40 1025 30.27 855 25.25 5.5 41.9 35 -8.9 16
11:45 1025 30.27 855 25.25 5.6 42 36 -8.4 16.9
11:50 1025 30.27 854 25.22 5.8 42.5 37 -7.9 17.8
11:55 1025 30.27 854 25.22 6.2 43.1 35 -8.1 17.5
12:00 1025 30.27 854 25.22 6 42.8 32 -9.4 15.1
12:05 1025 30.27 854 25.22 6.1 43 33 -8.8 16.1
12:10 1025 30.27 854 25.22 6.3 43.4 33 -8.6 16.5
12:15 1025 30.27 854 25.22 6.5 43.7 33 -8.8 16.1
12:20 1025 30.27 854 25.22 5.8 42.5 31 -10 14
12:25 1025 30.27 854 25.22 5.4 41.8 35 -8.7 16.4
12:30 1025 30.27 854 25.22 5 40.9 41 -7.2 19.1
12:35 1025 30.27 854 25.22 6 42.8 36 -8.2 17.3
12:40 1025 30.27 854 25.22 5.9 42.7 37 -7.8 18
12:45 1025 30.27 854 25.22 5.9 42.6 37 -7.6 18.3
12:50 1025 30.27 854 25.22 6.4 43.5 36 -7.6 18.3
12:55 1025 30.27 854 25.22 6.9 44.4 38 -6.3 20.6
13:00 1025 30.27 854 25.22 7.3 45.1 34 -7.5 18.4
13:05 1025 30.27 854 25.22 6.7 44.1 38 -6.8 19.8
13:10 1025 30.27 854 25.22 5.6 42.1 35 -8.6 16.6
13:15 1025 30.27 854 25.22 6.9 44.3 34 -7.9 17.7
13:20 1025 30.27 854 25.22 7.2 45 35 -7.3 18.9
13:25 1025 30.27 854 25.22 6.4 43.5 38 -7.1 19.3
13:30 1025 30.27 854 25.22 6 42.7 40 -6.8 19.8
13:35 1025 30.27 854 25.22 5.8 42.4 41 -6.5 20.2
13:40 1025 30.27 854 25.22 5.3 41.5 40 -7.3 18.9
13:45 1025 30.27 854 25.22 5.4 41.7 39 -7.6 18.3
13:50 1025 30.27 854 25.22 5.7 42.3 39 -7.3 18.8
13:55 1025 30.27 854 25.22 6.1 42.9 37 -7.6 18.3
14:00 1025 30.27 854 25.22 5.6 42.1 37 -7.9 17.9
14:05 1025 30.27 854 25.22 6.1 43 34 -8.6 16.5
14:10 1025 30.27 854 25.22 6.2 43.2 34 -8.6 16.5
14:15 1025 30.27 854 25.22 6.3 43.4 33 -8.6 16.4
14:20 1025 30.27 854 25.22 7.2 44.9 30 -9.2 15.4
14:25 1025 30.27 854 25.22 7.3 45.1 31 -8.9 16
14:30 1025 30.27 854 25.22 5.8 42.4 33 -9.3 15.3
14:35 1025 30.27 854 25.22 6.2 43.1 34 -8.4 16.9
14:40 1025 30.27 854 25.22 6.8 44.2 32 -8.8 16.1
14:45 1025 30.27 854 25.22 6.4 43.4 32 -9.3 15.2
14:50 1025 30.27 854 25.22 7.1 44.8 30 -9.3 15.3
14:55 1024 30.24 854 25.22 7.7 45.8 32 -7.9 17.7
15:00 1024 30.24 854 25.22 7.4 45.3 31 -8.7 16.4
15:05 1024 30.24 854 25.22 6.2 43.2 34 -8.6 16.6
15:10 1024 30.24 854 25.22 7.2 45 32 -8.4 16.9
15:15 1024 30.24 854 25.22 6.5 43.6 37 -7.2 19.1
15:20 1024 30.24 854 25.22 6.6 44 31 -9.4 15
15:25 1024 30.24 853 25.19 6.7 44 32 -8.8 16.2
15:30 1024 30.24 853 25.19 7.7 45.9 30 -8.7 16.3
15:35 1024 30.24 853 25.19 7.9 46.1 31 -8.2 17.2
15:40 1024 30.24 853 25.19 6.7 44.1 31 -9.3 15.3
15:45 1024 30.24 853 25.19 6.7 44.1 30 -9.7 14.6
15:50 1024 30.24 853 25.19 6.3 43.3 32 -9.2 15.4
15:55 1024 30.24 853 25.19 7.2 44.9 29 -9.6 14.8
16:00 1024 30.24 853 25.19 7.6 45.7 30 -8.8 16.2
16:05 1024 30.24 853 25.19 7.6 45.8 30 -8.7 16.4
16:10 1024 30.24 853 25.19 8 46.4 32 -7.6 18.4
16:15 1024 30.24 853 25.19 8.4 47.1 30 -8 17.6
16:20 1024 30.24 853 25.19 8.7 47.6 28 -8.8 16.2
16:25 1024 30.24 853 25.19 8.3 46.9 31 -7.9 17.8
16:30 1024 30.24 853 25.19 8.3 47 31 -8 17.6
16:35 1024 30.24 853 25.19 8.2 46.8 30 -8.2 17.3
16:40 1024 30.24 853 25.19 8.2 46.8 31 -7.8 18
16:45 1024 30.24 853 25.19 8.2 46.7 31 -8.1 17.4
16:50 1024 30.24 853 25.19 8.7 47.6 28 -8.8 16.1
16:55 1024 30.24 853 25.19 9.1 48.4 26 -9.2 15.4
17:00 1023 30.21 853 25.19 8.1 46.6 30 -8.5 16.6
17:05 1023 30.21 853 25.19 8.2 46.8 28 -9.5 15
17:10 1023 30.21 853 25.19 7.7 45.9 29 -9 15.8
17:15 1023 30.21 852 25.16 6.8 44.3 31 -9.2 15.5
17:20 1023 30.21 852 25.16 7.4 45.3 29 -9.3 15.2
17:25 1023 30.21 852 25.16 7.5 45.4 29 -9.4 15.2
17:30 1023 30.21 852 25.16 7.5 45.5 29 -9.3 15.3
17:35 1023 30.21 852 25.16 7.5 45.4 30 -9.2 15.5
17:40 1023 30.21 852 25.16 7.3 45.2 30 -9 15.7
17:45 1023 30.21 852 25.16 8.2 46.8 30 -8.2 17.2
17:50 1023 30.21 852 25.16 8.5 47.4 30 -8.2 17.3
17:55 1023 30.21 852 25.16 8.5 47.3 29 -8.7 16.4
18:00 1023 30.21 852 25.16 8.5 47.2 28 -8.9 16.1
18:05 1023 30.21 852 25.16 8.6 47.4 29 -8.7 16.4
18:10 1023 30.21 852 25.16 8.2 46.8 29 -8.7 16.3
18:15 1023 30.21 852 25.16 7.4 45.4 30 -8.9 15.9
18:20 1023 30.21 852 25.16 7.3 45.1 31 -8.9 15.9
18:25 1023 30.21 852 25.16 7.1 44.7 32 -8.4 16.8
18:30 1023 30.21 852 25.16 7.3 45.1 34 -7.4 18.6
18:35 1023 30.21 852 25.16 7.3 45.2 34 -7.7 18.2
18:40 1023 30.21 852 25.16 7.6 45.7 34 -7.4 18.7
18:45 1023 30.21 852 25.16 7.7 45.9 34 -7.1 19.2
18:50 1023 30.21 852 25.16 7.4 45.3 35 -7 19.5
18:55 1023 30.21 852 25.16 6.9 44.4 39 -6.1 21.1
19:00 1023 30.21 852 25.16 5.8 42.5 41 -6.5 20.3
19:05 1023 30.21 852 25.16 5.2 41.4 43 -6.3 20.6
19:10 1023 30.21 852 25.16 5.1 41.1 42 -6.8 19.7
19:15 1023 30.21 852 25.16 4.9 40.8 40 -7.5 18.5
19:20 1023 30.21 852 25.16 5.1 41.1 44 -6.2 20.8
19:25 1023 30.21 852 25.16 4.9 40.8 42 -7.1 19.3
19:30 1023 30.21 852 25.16 4.8 40.6 43 -6.9 19.6
19:35 1023 30.21 852 25.16 4.6 40.4 44 -6.6 20.1
19:40 1023 30.21 852 25.16 4.5 40 47 -5.9 21.5
19:45 1023 30.21 852 25.16 4.1 39.3 48 -5.9 21.4
19:50 1023 30.21 852 25.16 3.9 39.1 52 -5.2 22.7
19:55 1023 30.21 852 25.16 3.4 38.1 53 -5.4 22.3
20:00 1023 30.21 852 25.16 3 37.5 53 -5.6 22
20:05 1023 30.21 852 25.16 2.8 37.1 54 -5.7 21.8
20:10 1023 30.21 852 25.16 2.5 36.5 55 -5.6 21.9
20:15 1023 30.21 852 25.16 2.4 36.4 56 -5.4 22.2
20:20 1023 30.21 852 25.16 2.5 36.5 55 -5.7 21.7
20:25 1023 30.21 852 25.16 2.8 37.1 53 -5.7 21.8
20:30 1023 30.21 852 25.16 2.8 37 53 -5.9 21.5
20:35 1023 30.21 852 25.16 2.6 36.7 54 -5.7 21.8
20:40 1023 30.21 852 25.16 2.3 36.1 55 -5.7 21.7
20:45 1023 30.21 852 25.16 2 35.6 56 -5.8 21.6
20:50 1023 30.21 852 25.16 1.7 35.1 57 -5.9 21.4
20:55 1023 30.21 852 25.16 1.7 35 55 -6.3 20.6
21:00 1023 30.21 852 25.16 2 35.6 53 -6.5 20.3
21:05 1023 30.21 852 25.16 2.1 35.8 50 -7.3 18.8
21:10 1023 30.21 852 25.16 2.3 36.1 52 -6.7 20
21:15 1023 30.21 852 25.16 2.2 35.9 54 -6.1 21
21:20 1023 30.21 852 25.16 1.9 35.4 56 -5.9 21.4
21:25 1023 30.21 852 25.16 1.6 34.9 58 -5.9 21.4
21:30 1023 30.21 852 25.16 1.5 34.7 58 -5.8 21.5
21:35 1023 30.21 852 25.16 1.5 34.6 59 -5.7 21.8
21:40 1023 30.21 853 25.19 1.6 34.8 59 -5.7 21.8
21:45 1023 30.21 853 25.19 1.7 35.1 57 -5.9 21.5
21:50 1023 30.21 853 25.19 1.9 35.3 56 -6 21.2
21:55 1023 30.21 853 25.19 2.1 35.8 53 -6.4 20.5
22:00 1023 30.21 853 25.19 2.5 36.5 54 -5.8 21.6
22:05 1023 30.21 853 25.19 2.7 36.9 53 -6 21.2
22:10 1023 30.21 853 25.19 2.6 36.7 50 -6.9 19.6
22:15 1023 30.21 853 25.19 2.8 37.1 50 -6.6 20.1
22:20 1023 30.21 853 25.19 2.9 37.2 49 -6.7 19.9
22:25 1023 30.21 853 25.19 2.8 37 52 -6 21.2
22:30 1023 30.21 853 25.19 2.7 36.9 53 -6 21.3
22:35 1023 30.21 853 25.19 2.7 36.8 54 -5.7 21.7
22:40 1023 30.21 853 25.19 2.7 36.8 54 -5.7 21.7
22:45 1023 30.21 853 25.19 2.7 36.8 53 -5.8 21.5
22:50 1023 30.21 853 25.19 2.7 36.9 55 -5.5 22.1
22:55 1023 30.21 853 25.19 2.6 36.6 57 -5 22.9
23:00 1023 30.21 852 25.16 2.3 36.1 57 -5.4 22.3
23:05 1023 30.21 852 25.16 2.3 36.1 54 -6.1 21.1
23:10 1023 30.21 852 25.16 2.3 36.1 52 -6.4 20.4
23:15 1023 30.21 852 25.16 2.4 36.3 52 -6.6 20.2
23:20 1023 30.21 852 25.16 2.3 36.2 53 -6.3 20.7
23:25 1023 30.21 852 25.16 2.2 36 51 -6.9 19.5
23:30 1023 30.21 852 25.16 2.3 36.2 50 -7.1 19.2
23:35 1023 30.21 852 25.16 2.5 36.4 53 -6.2 20.9
23:40 1023 30.21 852 25.16 2.2 35.9 58 -5.3 22.5
23:45 1023 30.21 852 25.16 2 35.6 59 -5.1 22.8
23:50 1023 30.21 852 25.16 2 35.6 59 -5.1 22.8
23:55 1023 30.21 852 25.16 2 35.5 60 -4.9 23.1
24:00 1023 30.21 852 25.16 1.9 35.4 62 -4.6 23.7